createdAt,value
2017-04-27T00:00:06.215Z,9.23
2017-04-27T00:01:15.172Z,9.15
2017-04-27T00:02:24.130Z,9.35
2017-04-27T00:03:33.088Z,9.23
2017-04-27T00:04:42.038Z,9.18
2017-04-27T00:05:51.249Z,9.17
2017-04-27T00:07:00.203Z,9.17
2017-04-27T00:08:09.154Z,9.21
2017-04-27T00:09:18.110Z,9.2
2017-04-27T00:10:27.384Z,9.23
2017-04-27T00:11:36.592Z,9.23
2017-04-27T00:12:45.543Z,9.17
2017-04-27T00:13:54.580Z,9.2
2017-04-27T00:15:03.542Z,9.21
2017-04-27T00:16:12.496Z,9.18
2017-04-27T00:17:21.787Z,9.17
2017-04-27T00:18:30.734Z,9.11
2017-04-27T00:19:39.713Z,9.1
2017-04-27T00:20:48.665Z,9.13
2017-04-27T00:21:58.520Z,9.08
2017-04-27T00:23:07.728Z,9.11
2017-04-27T00:24:16.686Z,9.13
2017-04-27T00:25:25.636Z,9.13
2017-04-27T00:26:34.593Z,9.11
2017-04-27T00:27:43.546Z,9.13
2017-04-27T00:28:52.841Z,9.11
2017-04-27T00:30:01.798Z,9.04
2017-04-27T00:31:10.762Z,9.1
2017-04-27T00:32:19.800Z,9.11
2017-04-27T00:33:28.753Z,9.04
2017-04-27T00:34:37.956Z,9.13
2017-04-27T00:35:46.914Z,9.05
2017-04-27T00:36:55.868Z,9.1
2017-04-27T00:38:04.824Z,9.1
2017-04-27T00:39:13.774Z,9.08
2017-04-27T00:40:22.972Z,9.01
2017-04-27T00:41:31.928Z,8.95
2017-04-27T00:42:40.885Z,8.92
2017-04-27T00:43:49.844Z,8.94
2017-04-27T00:44:58.794Z,8.99
2017-04-27T00:46:07.999Z,8.92
2017-04-27T00:47:16.954Z,8.86
2017-04-27T00:48:25.934Z,8.86
2017-04-27T00:49:34.891Z,8.95
2017-04-27T00:50:43.842Z,8.87
2017-04-27T00:51:53.055Z,8.91
2017-04-27T00:53:02.007Z,8.76
2017-04-27T00:54:10.965Z,8.83
2017-04-27T00:55:19.919Z,8.79
2017-04-27T00:56:28.867Z,8.77
2017-04-27T00:57:38.072Z,8.79
2017-04-27T00:58:47.356Z,8.76
2017-04-27T00:59:56.326Z,8.74
2017-04-27T01:01:05.278Z,8.71
2017-04-27T01:02:14.242Z,8.7
2017-04-27T01:03:23.450Z,8.62
2017-04-27T01:04:32.418Z,8.56
2017-04-27T01:05:41.373Z,8.58
2017-04-27T01:06:50.321Z,8.68
2017-04-27T01:07:59.363Z,8.62
2017-04-27T01:09:08.571Z,8.5
2017-04-27T01:10:17.521Z,8.47
2017-04-27T01:11:26.466Z,8.61
2017-04-27T01:12:35.424Z,8.56
2017-04-27T01:13:44.382Z,8.53
2017-04-27T01:14:53.586Z,8.55
2017-04-27T01:16:02.543Z,8.58
2017-04-27T01:17:11.497Z,8.45
2017-04-27T01:18:20.451Z,8.59
2017-04-27T01:19:29.405Z,8.47
2017-04-27T01:20:38.655Z,8.45
2017-04-27T01:21:47.612Z,8.47
2017-04-27T01:22:56.570Z,8.5
2017-04-27T01:24:05.524Z,8.53
2017-04-27T01:25:14.486Z,8.48
2017-04-27T01:26:24.013Z,8.5
2017-04-27T01:27:32.988Z,8.5
2017-04-27T01:28:41.946Z,8.5
2017-04-27T01:29:50.902Z,8.48
2017-04-27T01:30:59.858Z,8.44
2017-04-27T01:32:09.065Z,8.45
2017-04-27T01:33:18.024Z,8.53
2017-04-27T01:34:27.318Z,8.53
2017-04-27T01:35:36.277Z,8.53
2017-04-27T01:36:45.231Z,8.55
2017-04-27T01:37:54.437Z,8.5
2017-04-27T01:39:03.390Z,8.53
2017-04-27T01:40:12.674Z,8.44
2017-04-27T01:41:21.622Z,8.56
2017-04-27T01:42:30.575Z,8.48
2017-04-27T01:43:39.777Z,8.55
2017-04-27T01:44:48.732Z,8.45
2017-04-27T01:45:57.690Z,8.47
2017-04-27T01:47:06.642Z,8.38
2017-04-27T01:48:15.600Z,8.4
2017-04-27T01:49:24.810Z,8.4
2017-04-27T01:50:33.760Z,8.4
2017-04-27T01:51:42.714Z,8.36
2017-04-27T01:52:51.667Z,8.18
2017-04-27T01:54:00.628Z,8.22
2017-04-27T01:55:09.827Z,8.2
2017-04-27T01:56:18.777Z,8.18
2017-04-27T01:57:27.764Z,8.18
2017-04-27T01:58:36.716Z,8.19
2017-04-27T01:59:45.674Z,8.25
2017-04-27T02:00:54.874Z,8.2
2017-04-27T02:02:03.831Z,8.12
2017-04-27T02:03:12.783Z,8.07
2017-04-27T02:04:21.742Z,8.08
2017-04-27T02:05:30.695Z,8.01
2017-04-27T02:06:39.897Z,8.05
2017-04-27T02:07:48.848Z,8.15
2017-04-27T02:08:57.846Z,8.08
2017-04-27T02:10:06.891Z,8.11
2017-04-27T02:11:15.855Z,8.07
2017-04-27T02:12:25.056Z,8.01
2017-04-27T02:13:34.013Z,8.05
2017-04-27T02:14:42.967Z,8.05
2017-04-27T02:15:51.928Z,8.07
2017-04-27T02:17:00.971Z,8.05
2017-04-27T02:18:10.183Z,8.16
2017-04-27T02:19:19.460Z,8.2
2017-04-27T02:20:28.418Z,8.16
2017-04-27T02:21:37.366Z,8.19
2017-04-27T02:22:46.326Z,8.19
2017-04-27T02:23:55.532Z,8.19
2017-04-27T02:25:04.482Z,8.19
2017-04-27T02:26:13.435Z,8.15
2017-04-27T02:27:22.800Z,8.18
2017-04-27T02:28:31.757Z,8.1
2017-04-27T02:29:40.963Z,8.08
2017-04-27T02:30:49.917Z,8.02
2017-04-27T02:31:58.875Z,8.05
2017-04-27T02:33:07.832Z,8.01
2017-04-27T02:34:16.786Z,8.02
2017-04-27T02:35:25.998Z,7.97
2017-04-27T02:36:35.038Z,7.95
2017-04-27T02:37:43.988Z,7.98
2017-04-27T02:38:52.981Z,7.93
2017-04-27T02:40:01.937Z,8
2017-04-27T02:41:11.142Z,7.95
2017-04-27T02:42:20.100Z,7.9
2017-04-27T02:43:29.385Z,7.97
2017-04-27T02:44:38.334Z,7.92
2017-04-27T02:45:47.288Z,7.93
2017-04-27T02:46:56.526Z,7.92
2017-04-27T02:48:05.482Z,8
2017-04-27T02:49:14.438Z,7.93
2017-04-27T02:50:23.722Z,8
2017-04-27T02:51:32.670Z,7.95
2017-04-27T02:52:41.880Z,7.89
2017-04-27T02:53:50.840Z,7.8
2017-04-27T02:54:59.798Z,7.72
2017-04-27T02:56:08.747Z,7.69
2017-04-27T02:57:17.733Z,7.58
2017-04-27T02:58:26.988Z,7.58
2017-04-27T02:59:35.946Z,7.68
2017-04-27T03:00:44.899Z,7.57
2017-04-27T03:01:53.850Z,7.6
2017-04-27T03:03:02.804Z,7.55
2017-04-27T03:04:12.017Z,7.55
2017-04-27T03:05:20.970Z,7.6
2017-04-27T03:06:29.923Z,7.58
2017-04-27T03:07:38.906Z,7.55
2017-04-27T03:08:47.859Z,7.55
2017-04-27T03:09:57.155Z,7.49
2017-04-27T03:11:06.197Z,7.49
2017-04-27T03:12:15.146Z,7.55
2017-04-27T03:13:24.096Z,7.5
2017-04-27T03:14:33.049Z,7.45
2017-04-27T03:15:42.252Z,7.46
2017-04-27T03:16:51.209Z,7.43
2017-04-27T03:18:00.165Z,7.46
2017-04-27T03:19:09.120Z,7.5
2017-04-27T03:20:18.071Z,7.52
2017-04-27T03:21:27.267Z,7.53
2017-04-27T03:22:36.218Z,7.55
2017-04-27T03:23:45.174Z,7.52
2017-04-27T03:25:00.420Z,7.52
2017-04-27T03:26:09.370Z,7.49
2017-04-27T03:27:18.574Z,7.5
2017-04-27T03:28:27.532Z,7.58
2017-04-27T03:29:36.496Z,7.49
2017-04-27T03:30:45.447Z,7.49
2017-04-27T03:31:54.398Z,7.57
2017-04-27T03:33:03.601Z,7.53
2017-04-27T03:34:12.904Z,7.61
2017-04-27T03:35:21.864Z,7.53
2017-04-27T03:36:30.818Z,7.55
2017-04-27T03:37:39.772Z,7.55
2017-04-27T03:38:48.981Z,7.57
2017-04-27T03:39:57.939Z,7.48
2017-04-27T03:41:06.889Z,7.5
2017-04-27T03:42:15.846Z,7.49
2017-04-27T03:43:24.801Z,7.45
2017-04-27T03:44:34.012Z,7.42
2017-04-27T03:45:42.960Z,7.48
2017-04-27T03:46:51.915Z,7.34
2017-04-27T03:48:00.863Z,7.35
2017-04-27T03:49:09.817Z,7.35
2017-04-27T03:50:19.344Z,7.39
2017-04-27T03:51:28.294Z,7.43
2017-04-27T03:52:37.244Z,7.42
2017-04-27T03:53:46.198Z,7.46
2017-04-27T03:54:55.154Z,7.5
2017-04-27T03:56:04.359Z,7.42
2017-04-27T03:57:13.313Z,7.46
2017-04-27T03:58:22.276Z,7.48
2017-04-27T03:59:31.240Z,7.48
2017-04-27T04:00:40.184Z,7.46
2017-04-27T04:01:49.386Z,7.48
2017-04-27T04:02:58.666Z,7.58
2017-04-27T04:04:07.710Z,7.49
2017-04-27T04:05:16.671Z,7.6
2017-04-27T04:06:25.625Z,7.52
2017-04-27T04:07:34.822Z,7.55
2017-04-27T04:08:43.783Z,7.46
2017-04-27T04:09:52.756Z,7.49
2017-04-27T04:11:01.707Z,7.57
2017-04-27T04:12:10.664Z,7.53
2017-04-27T04:13:19.866Z,7.58
2017-04-27T04:14:28.820Z,7.6
2017-04-27T04:15:37.770Z,7.68
2017-04-27T04:16:46.716Z,7.61
2017-04-27T04:17:55.668Z,7.64
2017-04-27T04:19:04.876Z,7.64
2017-04-27T04:20:13.834Z,7.6
2017-04-27T04:21:22.786Z,7.6
2017-04-27T04:22:31.739Z,7.64
2017-04-27T04:23:40.693Z,7.75
2017-04-27T04:24:49.902Z,7.74
2017-04-27T04:25:58.853Z,7.75
2017-04-27T04:27:07.808Z,7.77
2017-04-27T04:28:16.763Z,7.82
2017-04-27T04:29:25.714Z,7.82
2017-04-27T04:30:34.920Z,7.77
2017-04-27T04:31:43.907Z,7.77
2017-04-27T04:32:52.855Z,7.71
2017-04-27T04:34:01.810Z,7.74
2017-04-27T04:35:10.759Z,7.71
2017-04-27T04:36:19.966Z,7.72
2017-04-27T04:37:28.923Z,7.57
2017-04-27T04:38:37.885Z,7.57
2017-04-27T04:39:46.834Z,7.53
2017-04-27T04:40:55.794Z,7.57
2017-04-27T04:42:05.086Z,7.55
2017-04-27T04:43:14.030Z,7.68
2017-04-27T04:44:23.028Z,7.74
2017-04-27T04:45:31.983Z,7.72
2017-04-27T04:46:40.929Z,7.72
2017-04-27T04:47:50.145Z,7.75
2017-04-27T04:48:59.101Z,7.8
2017-04-27T04:50:08.142Z,7.87
2017-04-27T04:51:17.099Z,7.85
2017-04-27T04:52:26.054Z,7.85
2017-04-27T04:53:35.258Z,7.87
2017-04-27T04:54:44.255Z,7.9
2017-04-27T04:55:53.205Z,7.77
2017-04-27T04:57:02.158Z,7.97
2017-04-27T04:58:11.113Z,7.9
2017-04-27T04:59:20.406Z,7.93
2017-04-27T05:00:29.355Z,8.01
2017-04-27T05:01:38.308Z,7.98
2017-04-27T05:02:47.267Z,7.98
2017-04-27T05:03:56.223Z,8.01
2017-04-27T05:05:05.442Z,7.98
2017-04-27T05:06:14.730Z,7.9
2017-04-27T05:07:23.679Z,7.87
2017-04-27T05:08:32.632Z,7.87
2017-04-27T05:09:41.591Z,7.89
2017-04-27T05:10:50.797Z,7.86
2017-04-27T05:11:59.747Z,7.85
2017-04-27T05:13:08.706Z,7.82
2017-04-27T05:14:17.661Z,7.85
2017-04-27T05:15:26.616Z,7.85
2017-04-27T05:16:36.144Z,7.92
2017-04-27T05:17:45.100Z,7.87
2017-04-27T05:18:54.056Z,7.97
2017-04-27T05:20:03.010Z,7.98
2017-04-27T05:21:11.968Z,8.05
2017-04-27T05:22:21.184Z,8.05
2017-04-27T05:23:30.147Z,8.05
2017-04-27T05:24:39.109Z,8.16
2017-04-27T05:25:48.074Z,8.2
2017-04-27T05:26:57.029Z,8.23
2017-04-27T05:28:06.233Z,8.33
2017-04-27T05:29:15.522Z,8.33
2017-04-27T05:30:24.491Z,8.41
2017-04-27T05:31:33.447Z,8.43
2017-04-27T05:32:42.404Z,8.43
2017-04-27T05:33:51.621Z,8.44
2017-04-27T05:35:00.576Z,8.36
2017-04-27T05:36:09.598Z,8.36
2017-04-27T05:37:18.584Z,8.34
2017-04-27T05:38:27.586Z,8.34
2017-04-27T05:39:36.809Z,8.34
2017-04-27T05:40:45.847Z,8.38
2017-04-27T05:41:54.797Z,8.34
2017-04-27T05:43:03.802Z,8.36
2017-04-27T05:44:12.846Z,8.38
2017-04-27T05:45:22.337Z,8.44
2017-04-27T05:46:31.506Z,8.41
2017-04-27T05:47:40.464Z,8.5
2017-04-27T05:48:49.418Z,8.48
2017-04-27T05:49:58.371Z,8.52
2017-04-27T05:51:07.658Z,8.41
2017-04-27T05:52:16.617Z,8.4
2017-04-27T05:53:25.657Z,8.43
2017-04-27T05:54:35.310Z,8.41
2017-04-27T05:55:44.260Z,8.29
2017-04-27T05:56:53.464Z,8.28
2017-04-27T05:58:02.745Z,8.28
2017-04-27T05:59:12.021Z,8.26
2017-04-27T06:00:21.307Z,8.25
2017-04-27T06:01:30.255Z,8.18
2017-04-27T06:02:39.459Z,8.19
2017-04-27T06:03:48.416Z,8.19
2017-04-27T06:04:57.373Z,8.28
2017-04-27T06:06:06.332Z,8.34
2017-04-27T06:07:15.286Z,8.41
2017-04-27T06:08:24.487Z,8.55
2017-04-27T06:09:33.765Z,8.65
2017-04-27T06:10:42.723Z,8.63
2017-04-27T06:11:51.677Z,8.61
2017-04-27T06:13:00.631Z,8.74
2017-04-27T06:14:09.884Z,8.83
2017-04-27T06:15:18.855Z,8.76
2017-04-27T06:16:27.829Z,8.83
2017-04-27T06:17:36.797Z,8.84
2017-04-27T06:18:45.774Z,8.84
2017-04-27T06:19:55.061Z,8.84
2017-04-27T06:21:04.043Z,8.81
2017-04-27T06:22:13.015Z,8.79
2017-04-27T06:23:21.995Z,8.91
2017-04-27T06:24:30.974Z,8.86
2017-04-27T06:25:40.291Z,8.73
2017-04-27T06:26:49.268Z,8.89
2017-04-27T06:27:58.336Z,8.95
2017-04-27T06:29:07.309Z,8.92
2017-04-27T06:30:16.289Z,8.94
2017-04-27T06:31:25.518Z,8.91
2017-04-27T06:32:34.579Z,8.92
2017-04-27T06:33:43.666Z,9.01
2017-04-27T06:34:53.493Z,8.98
2017-04-27T06:36:02.465Z,9.04
2017-04-27T06:37:11.719Z,9.02
2017-04-27T06:38:20.786Z,8.91
2017-04-27T06:39:29.761Z,9.02
2017-04-27T06:40:38.832Z,9.02
2017-04-27T06:41:47.820Z,9.04
2017-04-27T06:42:57.048Z,9.08
2017-04-27T06:44:06.020Z,9.15
2017-04-27T06:45:15.000Z,9.14
2017-04-27T06:46:23.982Z,9.24
2017-04-27T06:47:32.952Z,9.33
2017-04-27T06:48:42.180Z,9.35
2017-04-27T06:49:51.243Z,9.38
2017-04-27T06:51:00.219Z,9.43
2017-04-27T06:52:09.190Z,9.46
2017-04-27T06:53:18.166Z,9.57
2017-04-27T06:54:27.390Z,9.53
2017-04-27T06:55:36.375Z,9.66
2017-04-27T06:56:45.349Z,9.66
2017-04-27T06:57:55.011Z,9.75
2017-04-27T06:59:03.986Z,9.75
2017-04-27T07:00:13.214Z,9.94
2017-04-27T07:01:22.180Z,10.02
2017-04-27T07:02:31.132Z,10.17
2017-04-27T07:03:40.236Z,10.26
2017-04-27T07:04:49.552Z,10.48
2017-04-27T07:05:58.908Z,10.55
2017-04-27T07:07:07.927Z,10.59
2017-04-27T07:08:17.097Z,10.56
2017-04-27T07:09:26.142Z,10.66
2017-04-27T07:10:35.372Z,10.66
2017-04-27T07:11:45.148Z,10.79
2017-04-27T07:12:54.132Z,10.79
2017-04-27T07:14:03.331Z,10.86
2017-04-27T07:15:12.435Z,10.82
2017-04-27T07:16:21.564Z,10.78
2017-04-27T07:17:30.770Z,10.78
2017-04-27T07:18:39.733Z,10.81
2017-04-27T07:19:48.690Z,10.7
2017-04-27T07:20:57.779Z,10.78
2017-04-27T07:22:06.739Z,10.81
2017-04-27T07:23:15.999Z,10.82
2017-04-27T07:24:24.951Z,10.84
2017-04-27T07:25:34.240Z,10.88
2017-04-27T07:26:43.202Z,10.89
2017-04-27T07:27:52.164Z,10.99
2017-04-27T07:29:01.376Z,11.09
2017-04-27T07:30:10.416Z,11.07
2017-04-27T07:31:19.381Z,11.09
2017-04-27T07:32:28.519Z,11
2017-04-27T07:33:37.526Z,10.97
2017-04-27T07:34:46.954Z,10.92
2017-04-27T07:35:55.959Z,11.02
2017-04-27T07:37:04.965Z,11.07
2017-04-27T07:38:13.927Z,11.11
2017-04-27T07:39:22.888Z,11.21
2017-04-27T07:40:32.091Z,11.28
2017-04-27T07:41:41.132Z,11.27
2017-04-27T07:42:50.090Z,11.22
2017-04-27T07:43:59.308Z,11.28
2017-04-27T07:45:08.301Z,11.35
2017-04-27T07:46:17.640Z,11.37
2017-04-27T07:47:26.594Z,11.37
2017-04-27T07:48:35.550Z,11.37
2017-04-27T07:49:44.828Z,11.44
2017-04-27T07:50:53.785Z,11.49
2017-04-27T07:52:02.994Z,11.47
2017-04-27T07:53:11.964Z,11.4
2017-04-27T07:54:20.930Z,11.4
2017-04-27T07:55:29.892Z,11.32
2017-04-27T07:56:38.846Z,11.36
2017-04-27T07:57:48.101Z,11.36
2017-04-27T07:58:57.062Z,11.28
2017-04-27T08:00:06.022Z,11.28
2017-04-27T08:01:14.978Z,11.32
2017-04-27T08:02:23.940Z,11.25
2017-04-27T08:03:33.150Z,11.37
2017-04-27T08:04:42.254Z,11.33
2017-04-27T08:05:51.210Z,11.49
2017-04-27T08:07:00.511Z,11.49
2017-04-27T08:08:09.882Z,11.33
2017-04-27T08:09:19.099Z,11.42
2017-04-27T08:10:28.139Z,11.51
2017-04-27T08:11:37.095Z,11.52
2017-04-27T08:12:46.064Z,11.7
2017-04-27T08:13:55.022Z,11.69
2017-04-27T08:15:04.224Z,11.78
2017-04-27T08:16:17.226Z,11.82
2017-04-27T08:17:32.255Z,11.67
2017-04-27T08:18:50.386Z,11.67
2017-04-27T08:20:02.549Z,11.7
2017-04-27T08:21:11.549Z,11.67
2017-04-27T08:22:20.503Z,11.72
2017-04-27T08:23:29.455Z,11.76
2017-04-27T08:24:38.414Z,11.65
2017-04-27T08:25:47.670Z,11.65
2017-04-27T08:26:56.946Z,11.67
2017-04-27T08:28:05.898Z,11.69
2017-04-27T08:29:14.858Z,11.72
2017-04-27T08:30:23.820Z,11.83
2017-04-27T08:31:33.133Z,11.91
2017-04-27T08:32:42.181Z,12.09
2017-04-27T08:33:51.145Z,12.23
2017-04-27T08:35:00.105Z,12.27
2017-04-27T08:36:09.070Z,12.38
2017-04-27T08:37:18.281Z,12.34
2017-04-27T08:38:28.057Z,12.46
2017-04-27T08:39:37.016Z,12.47
2017-04-27T08:40:45.971Z,12.41
2017-04-27T08:41:55.039Z,12.34
2017-04-27T08:43:04.450Z,12.41
2017-04-27T08:44:13.410Z,12.39
2017-04-27T08:45:22.372Z,12.52
2017-04-27T08:46:31.334Z,12.52
2017-04-27T08:47:40.312Z,12.5
2017-04-27T08:48:49.520Z,12.46
2017-04-27T08:49:58.472Z,12.5
2017-04-27T08:51:07.424Z,12.53
2017-04-27T08:52:16.391Z,12.6
2017-04-27T08:53:25.347Z,12.54
2017-04-27T08:54:34.561Z,12.6
2017-04-27T08:55:43.512Z,12.62
2017-04-27T08:56:52.467Z,12.59
2017-04-27T08:58:01.423Z,12.47
2017-04-27T08:59:10.379Z,12.39
2017-04-27T09:00:19.591Z,12.29
2017-04-27T09:01:28.555Z,12.34
2017-04-27T09:02:37.518Z,12.23
2017-04-27T09:03:46.478Z,12.23
2017-04-27T09:04:55.456Z,12.24
2017-04-27T09:06:04.710Z,12.35
2017-04-27T09:07:13.672Z,12.24
2017-04-27T09:08:22.627Z,12.2
2017-04-27T09:09:31.588Z,12.32
2017-04-27T09:10:40.544Z,12.45
2017-04-27T09:11:49.750Z,12.54
2017-04-27T09:12:58.715Z,12.59
2017-04-27T09:14:07.676Z,12.65
2017-04-27T09:15:16.634Z,12.72
2017-04-27T09:16:25.592Z,12.77
2017-04-27T09:17:34.852Z,12.83
2017-04-27T09:18:43.807Z,12.87
2017-04-27T09:19:52.779Z,12.86
2017-04-27T09:21:01.736Z,12.83
2017-04-27T09:22:10.707Z,12.92
2017-04-27T09:23:19.911Z,12.86
2017-04-27T09:24:28.868Z,12.97
2017-04-27T09:25:37.849Z,12.89
2017-04-27T09:26:46.806Z,12.97
2017-04-27T09:27:55.759Z,12.97
2017-04-27T09:29:04.962Z,12.89
2017-04-27T09:30:13.914Z,12.85
2017-04-27T09:31:22.891Z,12.85
2017-04-27T09:32:31.850Z,12.79
2017-04-27T09:33:40.901Z,12.72
2017-04-27T09:34:50.442Z,12.83
2017-04-27T09:35:59.402Z,12.82
2017-04-27T09:37:08.357Z,12.86
2017-04-27T09:38:17.328Z,13.07
2017-04-27T09:39:26.291Z,13.2
2017-04-27T09:40:35.618Z,13.29
2017-04-27T09:41:44.574Z,13.42
2017-04-27T09:42:53.633Z,13.55
2017-04-27T09:44:02.786Z,13.77
2017-04-27T09:45:12.208Z,13.7
2017-04-27T09:46:21.956Z,13.7
2017-04-27T09:47:31.022Z,13.73
2017-04-27T09:48:40.061Z,13.6
2017-04-27T09:49:49.193Z,13.66
2017-04-27T09:50:58.235Z,13.81
2017-04-27T09:52:07.442Z,13.82
2017-04-27T09:53:16.398Z,13.89
2017-04-27T09:54:25.354Z,13.84
2017-04-27T09:55:34.306Z,13.82
2017-04-27T09:56:43.262Z,13.79
2017-04-27T09:57:52.469Z,13.81
2017-04-27T09:59:01.427Z,13.81
2017-04-27T10:00:10.383Z,13.78
2017-04-27T10:01:19.341Z,13.75
2017-04-27T10:02:28.297Z,13.79
2017-04-27T10:03:37.507Z,13.88
2017-04-27T10:04:46.481Z,13.85
2017-04-27T10:05:55.434Z,13.77
2017-04-27T10:07:04.482Z,13.6
2017-04-27T10:08:13.452Z,13.63
2017-04-27T10:09:22.657Z,13.55
2017-04-27T10:10:31.614Z,13.44
2017-04-27T10:11:40.572Z,13.46
2017-04-27T10:12:49.523Z,13.39
2017-04-27T10:13:58.480Z,13.42
2017-04-27T10:15:07.687Z,13.39
2017-04-27T10:16:16.647Z,13.41
2017-04-27T10:17:25.601Z,13.36
2017-04-27T10:18:34.561Z,13.42
2017-04-27T10:19:43.524Z,13.51
2017-04-27T10:20:52.733Z,13.52
2017-04-27T10:22:01.691Z,13.44
2017-04-27T10:23:10.651Z,13.41
2017-04-27T10:24:19.613Z,13.41
2017-04-27T10:25:28.568Z,13.39
2017-04-27T10:26:37.858Z,13.28
2017-04-27T10:27:46.818Z,13.39
2017-04-27T10:28:55.776Z,13.48
2017-04-27T10:30:04.737Z,13.46
2017-04-27T10:31:13.692Z,13.49
2017-04-27T10:32:22.900Z,13.66
2017-04-27T10:33:31.855Z,13.59
2017-04-27T10:34:40.815Z,13.63
2017-04-27T10:35:49.772Z,13.67
2017-04-27T10:36:58.725Z,13.75
2017-04-27T10:38:08.021Z,13.73
2017-04-27T10:39:17.163Z,13.77
2017-04-27T10:40:26.123Z,13.84
2017-04-27T10:41:35.078Z,13.92
2017-04-27T10:42:44.039Z,13.92
2017-04-27T10:43:53.249Z,13.91
2017-04-27T10:45:02.209Z,13.97
2017-04-27T10:46:11.165Z,14.06
2017-04-27T10:47:20.123Z,14
2017-04-27T10:48:29.087Z,14.06
2017-04-27T10:49:38.299Z,14.21
2017-04-27T10:50:47.265Z,14.42
2017-04-27T10:51:56.220Z,14.47
2017-04-27T10:53:05.175Z,14.52
2017-04-27T10:54:14.137Z,14.58
2017-04-27T10:55:23.363Z,14.62
2017-04-27T10:56:32.319Z,14.72
2017-04-27T10:57:41.362Z,14.96
2017-04-27T10:58:50.318Z,15.02
2017-04-27T10:59:59.367Z,14.98
2017-04-27T11:01:08.578Z,14.96
2017-04-27T11:02:17.541Z,14.78
2017-04-27T11:03:26.586Z,14.61
2017-04-27T11:04:35.538Z,14.52
2017-04-27T11:05:44.497Z,14.45
2017-04-27T11:06:53.705Z,14.47
2017-04-27T11:08:02.663Z,14.43
2017-04-27T11:09:11.621Z,14.39
2017-04-27T11:10:20.582Z,14.39
2017-04-27T11:11:29.534Z,14.51
2017-04-27T11:12:38.747Z,14.51
2017-04-27T11:13:47.715Z,14.61
2017-04-27T11:14:56.691Z,14.64
2017-04-27T11:16:05.980Z,14.72
2017-04-27T11:17:14.933Z,14.81
2017-04-27T11:18:24.143Z,14.84
2017-04-27T11:19:33.193Z,14.99
2017-04-27T11:20:42.155Z,14.89
2017-04-27T11:21:51.113Z,14.86
2017-04-27T11:23:00.069Z,14.75
2017-04-27T11:24:09.289Z,14.69
2017-04-27T11:25:18.331Z,14.7
2017-04-27T11:26:27.289Z,14.8
2017-04-27T11:27:36.570Z,14.88
2017-04-27T11:28:45.532Z,14.73
2017-04-27T11:29:54.739Z,14.73
2017-04-27T11:31:03.790Z,14.57
2017-04-27T11:32:12.751Z,14.69
2017-04-27T11:33:21.720Z,14.72
2017-04-27T11:34:30.686Z,14.83
2017-04-27T11:35:39.893Z,14.98
2017-04-27T11:36:54.139Z,14.99
2017-04-27T11:38:03.116Z,14.94
2017-04-27T11:39:12.086Z,14.83
2017-04-27T11:40:21.053Z,14.72
2017-04-27T11:41:30.258Z,14.64
2017-04-27T11:42:39.218Z,14.62
2017-04-27T11:43:48.176Z,14.62
2017-04-27T11:44:57.135Z,14.64
2017-04-27T11:46:06.102Z,14.64
2017-04-27T11:47:15.314Z,14.6
2017-04-27T11:48:24.401Z,14.6
2017-04-27T11:49:33.363Z,14.58
2017-04-27T11:50:42.319Z,14.6
2017-04-27T11:51:51.602Z,14.77
2017-04-27T11:53:00.807Z,14.84
2017-04-27T11:54:09.767Z,14.78
2017-04-27T11:55:18.737Z,14.8
2017-04-27T11:56:27.784Z,14.72
2017-04-27T11:57:36.741Z,14.78
2017-04-27T11:58:45.961Z,14.61
2017-04-27T11:59:54.914Z,14.57
2017-04-27T12:01:03.920Z,14.54
2017-04-27T12:02:12.874Z,14.52
2017-04-27T12:03:22.179Z,14.65
2017-04-27T12:04:31.392Z,14.64
2017-04-27T12:05:40.352Z,14.65
2017-04-27T12:06:49.306Z,14.58
2017-04-27T12:07:58.300Z,14.64
2017-04-27T12:09:07.347Z,14.5
2017-04-27T12:10:16.560Z,14.55
2017-04-27T12:11:25.518Z,14.57
2017-04-27T12:12:34.472Z,14.62
2017-04-27T12:13:43.434Z,14.61
2017-04-27T12:14:52.391Z,14.64
2017-04-27T12:16:01.650Z,14.68
2017-04-27T12:17:10.609Z,14.7
2017-04-27T12:18:19.942Z,14.61
2017-04-27T12:19:28.907Z,14.6
2017-04-27T12:20:37.864Z,14.62
2017-04-27T12:21:47.073Z,14.58
2017-04-27T12:22:56.032Z,14.68
2017-04-27T12:24:05.000Z,14.68
2017-04-27T12:25:13.968Z,14.51
2017-04-27T12:26:22.935Z,14.5
2017-04-27T12:27:32.144Z,14.64
2017-04-27T12:28:41.100Z,14.65
2017-04-27T12:29:50.074Z,14.69
2017-04-27T12:30:59.037Z,14.64
2017-04-27T12:32:07.995Z,14.47
2017-04-27T12:33:17.202Z,14.37
2017-04-27T12:34:26.172Z,14.46
2017-04-27T12:35:35.141Z,14.4
2017-04-27T12:36:44.186Z,14.4
2017-04-27T12:37:53.147Z,14.4
2017-04-27T12:39:02.403Z,14.42
2017-04-27T12:40:11.364Z,14.46
2017-04-27T12:41:20.321Z,14.45
2017-04-27T12:42:29.313Z,14.57
2017-04-27T12:43:38.272Z,14.45
2017-04-27T12:44:47.478Z,14.36
2017-04-27T12:45:56.439Z,14.43
2017-04-27T12:47:05.440Z,14.42
2017-04-27T12:48:14.406Z,14.52
2017-04-27T12:49:23.475Z,14.58
2017-04-27T12:50:32.683Z,14.65
2017-04-27T12:51:41.641Z,14.73
2017-04-27T12:52:50.595Z,14.65
2017-04-27T12:53:59.561Z,14.72
2017-04-27T12:55:08.556Z,14.69
2017-04-27T12:56:17.775Z,14.7
2017-04-27T12:57:26.738Z,14.64
2017-04-27T12:58:35.708Z,14.68
2017-04-27T12:59:44.668Z,14.84
2017-04-27T13:00:54.037Z,14.95
2017-04-27T13:02:03.382Z,15.07
2017-04-27T13:03:12.344Z,15.1
2017-04-27T13:04:21.308Z,15.03
2017-04-27T13:05:30.364Z,15.09
2017-04-27T13:06:39.322Z,15.17
2017-04-27T13:07:48.550Z,15.21
2017-04-27T13:08:57.631Z,15.34
2017-04-27T13:10:06.624Z,15.31
2017-04-27T13:11:15.607Z,15.32
2017-04-27T13:12:24.587Z,15.16
2017-04-27T13:13:33.815Z,15.09
2017-04-27T13:14:42.786Z,15.1
2017-04-27T13:15:51.867Z,15.03
2017-04-27T13:17:00.825Z,14.99
2017-04-27T13:18:09.790Z,15.01
2017-04-27T13:19:19.335Z,14.94
2017-04-27T13:20:28.296Z,14.94
2017-04-27T13:21:37.255Z,15.06
2017-04-27T13:22:46.210Z,15.11
2017-04-27T13:23:55.258Z,15.19
2017-04-27T13:25:04.468Z,15.16
2017-04-27T13:26:13.435Z,15.11
2017-04-27T13:27:22.402Z,14.99
2017-04-27T13:28:31.363Z,14.88
2017-04-27T13:29:40.328Z,14.7
2017-04-27T13:30:49.626Z,14.47
2017-04-27T13:31:58.588Z,14.42
2017-04-27T13:33:07.554Z,14.4
2017-04-27T13:34:16.515Z,14.47
2017-04-27T13:35:25.477Z,14.68
2017-04-27T13:36:34.773Z,14.61
2017-04-27T13:37:43.733Z,14.84
2017-04-27T13:38:53.023Z,14.81
2017-04-27T13:40:01.982Z,14.91
2017-04-27T13:41:10.935Z,14.83
2017-04-27T13:42:20.139Z,14.8
2017-04-27T13:43:29.095Z,14.65
2017-04-27T13:44:38.725Z,14.75
2017-04-27T13:45:47.692Z,14.62
2017-04-27T13:46:56.823Z,14.61
2017-04-27T13:48:06.337Z,14.64
2017-04-27T13:49:15.510Z,14.64
2017-04-27T13:50:24.566Z,14.52
2017-04-27T13:51:33.677Z,14.43
2017-04-27T13:52:42.903Z,14.5
2017-04-27T13:53:52.665Z,14.47
2017-04-27T13:55:01.957Z,14.39
2017-04-27T13:56:10.923Z,14.6
2017-04-27T13:57:20.213Z,14.6
2017-04-27T13:58:29.176Z,14.69
2017-04-27T13:59:38.393Z,14.73
2017-04-27T14:00:47.357Z,14.86
2017-04-27T14:01:56.435Z,14.92
2017-04-27T14:03:05.393Z,14.98
2017-04-27T14:04:14.396Z,15.1
2017-04-27T14:05:23.703Z,15.01
2017-04-27T14:06:32.952Z,15.11
2017-04-27T14:07:42.106Z,15.1
2017-04-27T14:08:51.393Z,15.09
2017-04-27T14:10:00.478Z,15.06
2017-04-27T14:11:09.888Z,15.07
2017-04-27T14:12:18.947Z,15.09
2017-04-27T14:13:27.907Z,15.11
2017-04-27T14:14:37.368Z,15.07
2017-04-27T14:15:46.336Z,14.98
2017-04-27T14:16:55.543Z,14.92
2017-04-27T14:18:04.824Z,14.83
2017-04-27T14:19:13.783Z,14.78
2017-04-27T14:20:22.744Z,14.69
2017-04-27T14:21:31.701Z,14.68
2017-04-27T14:22:40.915Z,14.75
2017-04-27T14:23:49.872Z,14.75
2017-04-27T14:24:58.836Z,14.83
2017-04-27T14:26:07.796Z,14.94
2017-04-27T14:27:16.754Z,14.98
2017-04-27T14:28:25.966Z,14.96
2017-04-27T14:29:35.014Z,15.02
2017-04-27T14:30:43.977Z,15.02
2017-04-27T14:31:52.939Z,14.99
2017-04-27T14:33:01.897Z,14.98
2017-04-27T14:34:11.160Z,14.83
2017-04-27T14:35:20.118Z,14.75
2017-04-27T14:36:29.079Z,14.89
2017-04-27T14:37:38.045Z,14.84
2017-04-27T14:38:47.347Z,14.77
2017-04-27T14:39:56.665Z,14.81
2017-04-27T14:41:05.857Z,14.88
2017-04-27T14:42:14.843Z,14.75
2017-04-27T14:43:23.841Z,14.88
2017-04-27T14:44:32.809Z,14.81
2017-04-27T14:45:42.134Z,14.95
2017-04-27T14:46:51.094Z,14.91
2017-04-27T14:48:00.053Z,14.78
2017-04-27T14:49:09.020Z,14.94
2017-04-27T14:50:18.014Z,14.99
2017-04-27T14:51:27.231Z,14.99
2017-04-27T14:52:36.218Z,14.92
2017-04-27T14:53:45.369Z,15.03
2017-04-27T14:54:54.765Z,15.02
2017-04-27T14:56:03.977Z,15.01
2017-04-27T14:57:13.420Z,15.02
2017-04-27T14:58:22.636Z,14.99
2017-04-27T14:59:31.861Z,15.03
2017-04-27T15:00:40.999Z,14.98
2017-04-27T15:01:50.232Z,15.02
2017-04-27T15:02:59.926Z,14.99
2017-04-27T15:04:09.068Z,14.99
2017-04-27T15:05:18.257Z,14.94
2017-04-27T15:06:27.502Z,14.84